createdAt,value
2019-01-23T00:01:06.151Z,94.87
2019-01-23T00:03:32.479Z,94.79
2019-01-23T00:05:58.826Z,94.70
2019-01-23T00:08:25.206Z,94.49
2019-01-23T00:10:51.614Z,94.34
2019-01-23T00:13:17.967Z,94.18
2019-01-23T00:15:44.379Z,93.99
2019-01-23T00:18:10.758Z,93.87
2019-01-23T00:20:37.168Z,93.81
2019-01-23T00:23:03.567Z,93.76
2019-01-23T00:25:29.947Z,93.46
2019-01-23T00:27:56.370Z,93.40
2019-01-23T00:30:22.688Z,93.32
2019-01-23T00:32:49.031Z,93.23
2019-01-23T00:35:15.427Z,93.46
2019-01-23T00:37:41.807Z,93.39
2019-01-23T00:40:08.155Z,93.75
2019-01-23T00:42:34.538Z,93.68
2019-01-23T00:45:00.914Z,93.84
2019-01-23T00:47:27.327Z,93.99
2019-01-23T00:49:53.730Z,94.03
2019-01-23T00:52:20.073Z,94.18
2019-01-23T00:54:46.445Z,94.24
2019-01-23T00:57:12.821Z,94.25
2019-01-23T00:59:39.153Z,94.13
2019-01-23T01:02:05.524Z,94.18
2019-01-23T01:04:31.820Z,94.22
2019-01-23T01:06:58.133Z,94.16
2019-01-23T01:09:24.432Z,94.15
2019-01-23T01:11:50.743Z,94.18
2019-01-23T01:14:17.047Z,94.27
2019-01-23T01:16:43.357Z,94.43
2019-01-23T01:19:09.659Z,94.46
2019-01-23T01:21:36.014Z,94.55
2019-01-23T01:24:02.323Z,94.61
2019-01-23T01:26:28.633Z,94.61
2019-01-23T01:28:56.128Z,94.65
2019-01-23T01:31:21.251Z,94.64
2019-01-23T01:33:47.551Z,94.70
2019-01-23T01:36:13.905Z,94.73
2019-01-23T01:38:40.262Z,94.81
2019-01-23T01:41:06.566Z,94.77
2019-01-23T01:43:32.872Z,94.64
2019-01-23T01:45:59.195Z,94.59
2019-01-23T01:48:25.517Z,94.65
2019-01-23T01:50:51.877Z,94.78
2019-01-23T01:53:18.189Z,94.97
2019-01-23T01:55:44.503Z,95.04
2019-01-23T01:58:10.815Z,95.18
2019-01-23T02:00:37.120Z,95.44
2019-01-23T02:03:03.429Z,95.76
2019-01-23T02:05:29.736Z,96.31
2019-01-23T02:07:56.047Z,96.54
2019-01-23T02:10:22.348Z,97.32
2019-01-23T02:12:48.662Z,98.15
2019-01-23T02:15:14.967Z,98.70
2019-01-23T02:17:41.272Z,98.93
2019-01-23T02:20:07.576Z,99.44
2019-01-23T02:22:33.883Z,99.71
2019-01-23T02:25:00.200Z,99.82
2019-01-23T02:27:26.495Z,99.84
2019-01-23T02:29:52.793Z,99.93
2019-01-23T02:32:19.103Z,99.95
2019-01-23T02:34:45.413Z,99.97
2019-01-23T02:37:11.720Z,99.99
2019-01-23T02:39:38.021Z,100.00
2019-01-23T02:42:04.336Z,100.00
2019-01-23T02:44:30.637Z,100.00
2019-01-23T02:46:56.973Z,100.00
2019-01-23T02:49:23.285Z,100.00
2019-01-23T02:51:49.594Z,100.00
2019-01-23T02:54:15.905Z,100.00
2019-01-23T02:56:42.208Z,100.00
2019-01-23T02:59:08.526Z,100.00
2019-01-23T03:01:34.831Z,100.00
2019-01-23T03:04:01.142Z,100.00
2019-01-23T03:06:27.444Z,100.00
2019-01-23T03:08:53.757Z,100.00
2019-01-23T03:11:20.072Z,100.00
2019-01-23T03:13:46.381Z,100.00
2019-01-23T03:16:12.691Z,100.00
2019-01-23T03:18:38.995Z,100.00
2019-01-23T03:21:05.310Z,100.00
2019-01-23T03:23:31.620Z,100.00
2019-01-23T03:25:57.933Z,100.00
2019-01-23T03:28:24.235Z,100.00
2019-01-23T03:30:50.546Z,100.00
2019-01-23T03:33:16.858Z,100.00
2019-01-23T03:35:43.156Z,100.00
2019-01-23T03:38:09.475Z,100.00
2019-01-23T03:40:35.781Z,100.00
2019-01-23T03:43:02.083Z,100.00
2019-01-23T03:45:28.393Z,100.00
2019-01-23T03:47:54.703Z,100.00
2019-01-23T03:50:21.006Z,100.00
2019-01-23T03:52:47.325Z,100.00
2019-01-23T03:55:13.633Z,100.00
2019-01-23T03:57:39.965Z,100.00
2019-01-23T04:00:06.271Z,100.00
2019-01-23T04:02:32.579Z,100.00
2019-01-23T04:04:58.889Z,100.00
2019-01-23T04:07:25.183Z,100.00
2019-01-23T04:09:51.490Z,100.00
2019-01-23T04:12:17.793Z,100.00
2019-01-23T04:14:44.104Z,100.00
2019-01-23T04:17:10.405Z,100.00
2019-01-23T04:19:36.745Z,100.00
2019-01-23T04:22:03.016Z,100.00
2019-01-23T04:24:29.334Z,100.00
2019-01-23T04:26:55.633Z,100.00
2019-01-23T04:29:21.941Z,100.00
2019-01-23T04:31:48.248Z,100.00
2019-01-23T04:34:14.556Z,100.00
2019-01-23T04:36:40.864Z,100.00
2019-01-23T04:39:07.176Z,100.00
2019-01-23T04:41:33.495Z,100.00
2019-01-23T04:43:59.805Z,100.00
2019-01-23T04:46:26.116Z,100.00
2019-01-23T04:48:52.445Z,100.00
2019-01-23T04:51:18.765Z,100.00
2019-01-23T04:53:45.074Z,100.00
2019-01-23T04:56:11.380Z,100.00
2019-01-23T04:58:37.695Z,100.00
2019-01-23T05:01:04.000Z,100.00
2019-01-23T05:03:30.305Z,100.00
2019-01-23T05:05:56.611Z,100.00
2019-01-23T05:08:22.917Z,100.00
2019-01-23T05:10:49.228Z,100.00
2019-01-23T05:13:15.537Z,100.00
2019-01-23T05:15:41.870Z,100.00
2019-01-23T05:18:08.178Z,100.00
2019-01-23T05:20:34.506Z,100.00
2019-01-23T05:23:00.809Z,100.00
2019-01-23T05:25:27.123Z,100.00
2019-01-23T05:27:53.424Z,100.00
2019-01-23T05:30:19.737Z,100.00
2019-01-23T05:32:46.043Z,100.00
2019-01-23T05:35:12.354Z,99.99
2019-01-23T05:37:38.665Z,100.00
2019-01-23T05:40:04.976Z,100.00
2019-01-23T05:42:31.281Z,100.00
2019-01-23T05:44:57.591Z,100.00
2019-01-23T05:47:23.904Z,100.00
2019-01-23T05:49:50.207Z,100.00
2019-01-23T05:52:16.523Z,100.00
2019-01-23T05:54:42.823Z,100.00
2019-01-23T05:57:09.129Z,100.00
2019-01-23T05:59:35.447Z,100.00
2019-01-23T06:02:01.749Z,100.00
2019-01-23T06:04:28.053Z,100.00
2019-01-23T06:06:54.366Z,100.00
2019-01-23T06:09:20.787Z,100.00
2019-01-23T06:11:47.057Z,100.00
2019-01-23T06:14:13.360Z,100.00
2019-01-23T06:16:39.683Z,100.00
2019-01-23T06:19:05.989Z,100.00
2019-01-23T06:21:32.304Z,100.00
2019-01-23T06:23:58.612Z,100.00
2019-01-23T06:26:24.928Z,100.00
2019-01-23T06:28:51.245Z,100.00
2019-01-23T06:31:17.562Z,100.00
2019-01-23T06:33:43.879Z,100.00
2019-01-23T06:36:10.169Z,99.93
2019-01-23T06:38:36.511Z,99.79
2019-01-23T06:41:02.782Z,99.80
2019-01-23T06:43:29.088Z,99.70
2019-01-23T06:45:55.440Z,99.64
2019-01-23T06:48:21.744Z,99.44
2019-01-23T06:50:48.052Z,99.14
2019-01-23T06:53:14.399Z,98.94
2019-01-23T06:55:40.711Z,99.06
2019-01-23T06:58:07.017Z,98.90
2019-01-23T07:00:33.322Z,98.67
2019-01-23T07:02:59.634Z,98.79
2019-01-23T07:05:25.948Z,98.88
2019-01-23T07:07:52.280Z,98.77
2019-01-23T07:10:18.561Z,98.71
2019-01-23T07:12:44.863Z,98.66
2019-01-23T07:15:11.172Z,98.47
2019-01-23T07:17:37.475Z,98.25
2019-01-23T07:20:03.793Z,98.24
2019-01-23T07:22:30.143Z,98.31
2019-01-23T07:24:56.443Z,98.20
2019-01-23T07:27:22.752Z,98.02
2019-01-23T07:29:49.074Z,98.09
2019-01-23T07:32:15.384Z,98.10
2019-01-23T07:34:41.684Z,98.26
2019-01-23T07:37:07.995Z,98.03
2019-01-23T07:39:34.298Z,97.97
2019-01-23T07:42:00.609Z,97.88
2019-01-23T07:44:26.914Z,97.79
2019-01-23T07:46:53.218Z,97.43
2019-01-23T07:49:19.528Z,97.36
2019-01-23T07:51:45.845Z,97.13
2019-01-23T07:54:12.147Z,97.07
2019-01-23T07:56:38.452Z,96.86
2019-01-23T07:59:04.755Z,96.75
2019-01-23T08:01:31.064Z,96.29
2019-01-23T08:03:57.369Z,95.91
2019-01-23T08:06:23.688Z,95.77
2019-01-23T08:08:49.992Z,95.25
2019-01-23T08:11:16.299Z,95.11
2019-01-23T08:13:42.629Z,94.95
2019-01-23T08:16:08.914Z,94.75
2019-01-23T08:18:35.223Z,94.46
2019-01-23T08:21:01.530Z,93.83
2019-01-23T08:23:27.835Z,93.67
2019-01-23T08:25:54.141Z,93.03
2019-01-23T08:28:20.448Z,92.59
2019-01-23T08:30:46.756Z,91.57
2019-01-23T08:33:13.066Z,91.65
2019-01-23T08:35:39.375Z,91.69
2019-01-23T08:38:05.684Z,90.99
2019-01-23T08:40:31.990Z,90.79
2019-01-23T08:42:58.300Z,90.14
2019-01-23T08:45:24.610Z,89.83
2019-01-23T08:47:50.915Z,89.09
2019-01-23T08:50:17.220Z,88.69
2019-01-23T08:52:43.580Z,89.45
2019-01-23T08:55:09.888Z,88.69
2019-01-23T08:57:36.197Z,88.39
2019-01-23T09:00:02.508Z,88.64
2019-01-23T09:02:28.816Z,88.18
2019-01-23T09:04:55.122Z,88.42
2019-01-23T09:07:21.428Z,87.70
2019-01-23T09:09:47.734Z,87.62
2019-01-23T09:12:14.095Z,86.89
2019-01-23T09:14:40.401Z,87.58
2019-01-23T09:17:06.717Z,87.75
2019-01-23T09:19:33.025Z,87.41
2019-01-23T09:21:59.337Z,87.46
2019-01-23T09:24:25.654Z,86.94
2019-01-23T09:26:51.963Z,87.49
2019-01-23T09:29:18.283Z,88.17
2019-01-23T09:31:44.587Z,88.29
2019-01-23T09:34:10.895Z,88.79
2019-01-23T09:36:37.199Z,89.03
2019-01-23T09:39:03.504Z,88.87
2019-01-23T09:41:29.812Z,88.85
2019-01-23T09:43:56.115Z,88.93
2019-01-23T09:46:22.421Z,88.88
2019-01-23T09:48:48.736Z,88.61
2019-01-23T09:51:15.044Z,88.03
2019-01-23T09:53:41.365Z,87.88
2019-01-23T09:56:07.671Z,87.89
2019-01-23T09:58:33.980Z,87.48
2019-01-23T10:01:00.292Z,87.80
2019-01-23T10:03:26.597Z,87.97
2019-01-23T10:05:52.901Z,87.74
2019-01-23T10:08:19.210Z,87.61
2019-01-23T10:10:45.519Z,88.08
2019-01-23T10:13:11.833Z,88.28
2019-01-23T10:15:38.135Z,88.13
2019-01-23T10:18:04.447Z,87.80
2019-01-23T10:20:30.758Z,87.53
2019-01-23T10:22:57.071Z,87.50
2019-01-23T10:25:23.370Z,86.41
2019-01-23T10:27:49.688Z,86.57
2019-01-23T10:30:15.985Z,85.86
2019-01-23T10:32:42.298Z,85.09
2019-01-23T10:35:08.603Z,85.03
2019-01-23T10:37:34.912Z,85.27
2019-01-23T10:40:01.220Z,85.49
2019-01-23T10:42:27.519Z,85.57
2019-01-23T10:44:53.825Z,86.08
2019-01-23T10:47:20.140Z,86.13
2019-01-23T10:49:46.447Z,85.84
2019-01-23T10:52:12.755Z,85.65
2019-01-23T10:54:39.067Z,85.78
2019-01-23T10:57:05.377Z,86.55
2019-01-23T10:59:31.675Z,86.50
2019-01-23T11:01:57.985Z,86.29
2019-01-23T11:04:24.301Z,86.59
2019-01-23T11:06:50.610Z,86.52
2019-01-23T11:09:17.009Z,86.55
2019-01-23T11:11:43.238Z,86.44
2019-01-23T11:14:09.543Z,86.31
2019-01-23T11:16:35.848Z,85.74
2019-01-23T11:19:02.158Z,85.46
2019-01-23T11:21:28.478Z,85.49
2019-01-23T11:23:54.787Z,85.22
2019-01-23T11:26:21.109Z,85.81
2019-01-23T11:28:47.412Z,85.95
2019-01-23T11:31:20.199Z,85.46
2019-01-23T11:33:40.025Z,85.12
2019-01-23T11:36:06.335Z,85.17
2019-01-23T11:38:32.651Z,85.13
2019-01-23T11:40:58.965Z,84.99
2019-01-23T11:43:25.272Z,85.07
2019-01-23T11:45:51.580Z,85.08
2019-01-23T11:48:17.891Z,85.35
2019-01-23T11:50:44.201Z,85.83
2019-01-23T11:53:10.510Z,84.80
2019-01-23T11:55:36.862Z,84.06
2019-01-23T11:58:03.190Z,83.81
2019-01-23T12:00:29.492Z,83.68
2019-01-23T12:02:55.812Z,83.22
2019-01-23T12:05:22.147Z,82.97
2019-01-23T12:07:48.459Z,82.64
2019-01-23T12:10:14.767Z,82.68
2019-01-23T12:12:41.077Z,82.54
2019-01-23T12:15:07.396Z,82.51
2019-01-23T12:17:33.694Z,82.38
2019-01-23T12:20:00.005Z,82.07
2019-01-23T12:22:26.312Z,82.12
2019-01-23T12:24:52.626Z,82.03
2019-01-23T12:27:18.933Z,82.23
2019-01-23T12:29:45.241Z,82.34
2019-01-23T12:32:11.577Z,82.54
2019-01-23T12:34:37.857Z,82.78
2019-01-23T12:37:04.185Z,82.67
2019-01-23T12:39:30.478Z,82.72
2019-01-23T12:41:56.783Z,82.64
2019-01-23T12:44:23.095Z,81.99
2019-01-23T12:46:49.405Z,82.37
2019-01-23T12:49:15.717Z,81.61
2019-01-23T12:51:42.023Z,81.54
2019-01-23T12:54:08.331Z,81.36
2019-01-23T12:56:34.641Z,81.41
2019-01-23T12:59:00.943Z,80.82
2019-01-23T13:01:27.252Z,80.44
2019-01-23T13:03:53.564Z,80.20
2019-01-23T13:06:19.869Z,80.52
2019-01-23T13:08:46.180Z,79.99
2019-01-23T13:11:12.484Z,79.98
2019-01-23T13:13:38.792Z,80.27
2019-01-23T13:16:05.105Z,80.17
2019-01-23T13:18:32.146Z,80.79
2019-01-23T13:20:57.761Z,81.10
2019-01-23T13:23:24.069Z,81.37
2019-01-23T13:25:50.405Z,81.73
2019-01-23T13:28:16.710Z,82.11
2019-01-23T13:30:43.063Z,82.02
2019-01-23T13:33:09.368Z,81.58
2019-01-23T13:35:35.710Z,81.92
2019-01-23T13:38:02.017Z,82.00
2019-01-23T13:40:28.334Z,81.87
2019-01-23T13:42:54.636Z,81.35
2019-01-23T13:45:20.944Z,81.27
2019-01-23T13:47:47.253Z,81.17
2019-01-23T13:50:13.556Z,80.50
2019-01-23T13:52:39.868Z,80.44
2019-01-23T13:55:06.170Z,80.72
2019-01-23T13:57:32.476Z,80.70
2019-01-23T13:59:58.801Z,81.29
2019-01-23T14:02:25.109Z,81.61
2019-01-23T14:04:51.415Z,81.67
2019-01-23T14:07:17.724Z,81.66
2019-01-23T14:09:44.030Z,81.78
2019-01-23T14:12:10.496Z,82.02
2019-01-23T14:14:36.800Z,82.29
2019-01-23T14:17:03.103Z,83.15
2019-01-23T14:19:29.409Z,83.66
2019-01-23T14:21:55.711Z,83.47
2019-01-23T14:24:22.019Z,83.75
2019-01-23T14:26:48.353Z,84.20
2019-01-23T14:29:14.660Z,84.30
2019-01-23T14:31:40.965Z,84.69
2019-01-23T14:34:07.279Z,85.51
2019-01-23T14:36:33.586Z,85.70
2019-01-23T14:38:59.896Z,86.51
2019-01-23T14:41:26.204Z,87.36
2019-01-23T14:43:52.508Z,88.02
2019-01-23T14:46:18.822Z,89.49
2019-01-23T14:48:45.124Z,90.23
2019-01-23T14:51:11.588Z,91.03
2019-01-23T14:53:37.893Z,91.85
2019-01-23T14:56:04.203Z,92.43
2019-01-23T14:58:30.508Z,92.75
2019-01-23T15:00:56.831Z,93.34
2019-01-23T15:03:23.128Z,94.49
2019-01-23T15:05:49.454Z,95.07
2019-01-23T15:08:15.768Z,95.67
2019-01-23T15:10:42.097Z,95.68
2019-01-23T15:13:08.407Z,95.70
2019-01-23T15:15:34.724Z,95.63
2019-01-23T15:18:01.150Z,96.01
2019-01-23T15:20:27.507Z,96.25
2019-01-23T15:22:53.836Z,96.49
2019-01-23T15:25:20.143Z,96.84
2019-01-23T15:27:46.448Z,97.18
2019-01-23T15:30:12.770Z,97.82
2019-01-23T15:32:39.075Z,98.18
2019-01-23T15:35:05.380Z,98.34
2019-01-23T15:37:31.693Z,98.02
2019-01-23T15:39:58.010Z,98.29
2019-01-23T15:42:24.318Z,98.13
2019-01-23T15:44:50.674Z,97.93
2019-01-23T15:47:17.020Z,98.15
2019-01-23T15:49:43.491Z,97.83
2019-01-23T15:52:09.799Z,97.61
2019-01-23T15:54:36.109Z,97.47
2019-01-23T15:57:02.417Z,97.28
2019-01-23T15:59:28.723Z,97.30
2019-01-23T16:01:55.101Z,96.80
2019-01-23T16:04:21.405Z,96.20
2019-01-23T16:06:47.714Z,96.10
2019-01-23T16:09:14.020Z,96.25
2019-01-23T16:11:40.332Z,96.29
2019-01-23T16:14:06.634Z,96.30
2019-01-23T16:16:32.956Z,96.46
2019-01-23T16:18:59.258Z,96.49
2019-01-23T16:21:25.575Z,96.54
2019-01-23T16:23:51.903Z,96.48
2019-01-23T16:26:20.795Z,96.33
2019-01-23T16:28:46.928Z,96.35
2019-01-23T16:31:13.249Z,96.30
2019-01-23T16:33:39.558Z,96.26
2019-01-23T16:36:05.894Z,96.30
2019-01-23T16:38:32.245Z,96.40
2019-01-23T16:40:58.555Z,96.37
2019-01-23T16:43:24.889Z,96.43
2019-01-23T16:45:51.209Z,96.65
2019-01-23T16:48:17.515Z,96.68
2019-01-23T16:50:43.829Z,96.82
2019-01-23T16:53:10.147Z,96.87
2019-01-23T16:55:36.451Z,97.13
2019-01-23T16:58:02.756Z,97.18
2019-01-23T17:00:29.064Z,97.23
2019-01-23T17:02:55.368Z,97.27
2019-01-23T17:05:21.686Z,97.25
2019-01-23T17:07:47.997Z,97.30
2019-01-23T17:10:14.319Z,97.31
2019-01-23T17:12:40.620Z,97.39
2019-01-23T17:15:06.926Z,97.46
2019-01-23T17:17:33.314Z,97.72
2019-01-23T17:19:59.618Z,97.84
2019-01-23T17:22:25.916Z,97.84
2019-01-23T17:24:52.233Z,98.01
2019-01-23T17:27:18.555Z,98.18
2019-01-23T17:29:44.859Z,98.08
2019-01-23T17:32:11.203Z,98.05
2019-01-23T17:34:37.600Z,98.08
2019-01-23T17:37:04.126Z,98.05
2019-01-23T17:39:30.432Z,98.02
2019-01-23T17:41:56.752Z,97.99
2019-01-23T17:44:23.065Z,98.05
2019-01-23T17:46:49.358Z,97.95
2019-01-23T17:49:15.677Z,98.09
2019-01-23T17:51:41.993Z,98.12
2019-01-23T17:54:08.308Z,98.13
2019-01-23T17:56:34.615Z,98.19
2019-01-23T17:59:01.308Z,98.35
2019-01-23T18:01:27.229Z,98.34
2019-01-23T18:03:53.533Z,98.33
2019-01-23T18:06:19.858Z,98.48
2019-01-23T18:08:46.167Z,98.65
2019-01-23T18:11:12.472Z,98.84
2019-01-23T18:13:38.804Z,98.96
2019-01-23T18:16:05.107Z,99.07
2019-01-23T18:18:31.411Z,98.92
2019-01-23T18:20:57.715Z,98.62
2019-01-23T18:23:24.014Z,98.44
2019-01-23T18:25:50.404Z,98.30
2019-01-23T18:28:16.765Z,98.14
2019-01-23T18:30:43.133Z,98.10
2019-01-23T18:33:09.443Z,97.97
2019-01-23T18:35:35.747Z,97.92
2019-01-23T18:38:02.069Z,97.92
2019-01-23T18:40:28.399Z,98.02
2019-01-23T18:42:54.719Z,97.94
2019-01-23T18:45:21.024Z,97.91
2019-01-23T18:47:47.328Z,97.92
2019-01-23T18:50:13.693Z,97.96
2019-01-23T18:52:40.316Z,97.89
2019-01-23T18:55:06.931Z,98.06
2019-01-23T18:57:33.240Z,97.99
2019-01-23T18:59:59.633Z,97.92
2019-01-23T19:02:25.970Z,97.88
2019-01-23T19:04:52.342Z,97.88
2019-01-23T19:07:18.789Z,97.71
2019-01-23T19:09:45.096Z,97.40
2019-01-23T19:12:11.402Z,97.23
2019-01-23T19:14:37.715Z,97.06
2019-01-23T19:17:04.024Z,96.85
2019-01-23T19:19:30.406Z,96.89
2019-01-23T19:21:56.808Z,96.96
2019-01-23T19:24:23.170Z,96.72
2019-01-23T19:26:49.530Z,96.54
2019-01-23T19:29:15.885Z,96.68
2019-01-23T19:31:42.513Z,96.74
2019-01-23T19:34:08.815Z,96.74
2019-01-23T19:36:35.218Z,96.60
2019-01-23T19:39:01.577Z,96.50
2019-01-23T19:41:27.942Z,96.33
2019-01-23T19:43:55.095Z,96.26
2019-01-23T19:46:21.447Z,96.05
2019-01-23T19:48:50.093Z,96.10
2019-01-23T19:51:16.411Z,96.11
2019-01-23T19:53:42.774Z,96.14
2019-01-23T19:56:09.181Z,96.25
2019-01-23T19:58:35.538Z,96.48
2019-01-23T20:01:01.965Z,96.62
2019-01-23T20:03:28.614Z,96.63
2019-01-23T20:05:54.986Z,96.57
2019-01-23T20:08:21.418Z,96.52
2019-01-23T20:10:47.746Z,96.58
2019-01-23T20:13:14.138Z,96.61
2019-01-23T20:15:41.947Z,96.52
2019-01-23T20:18:07.211Z,96.24
2019-01-23T20:20:35.958Z,95.88
2019-01-23T20:22:59.934Z,95.70
2019-01-23T20:25:27.727Z,95.49
2019-01-23T20:27:53.688Z,95.25
2019-01-23T20:30:21.162Z,95.26
2019-01-23T20:32:47.570Z,95.29
2019-01-23T20:35:13.929Z,95.20
2019-01-23T20:37:43.576Z,95.26
2019-01-23T20:40:06.668Z,95.36
2019-01-23T20:42:33.001Z,95.41
2019-01-23T20:44:59.356Z,95.43
2019-01-23T20:47:25.719Z,95.42
2019-01-23T20:49:52.136Z,95.44
2019-01-23T20:52:18.499Z,95.41
2019-01-23T20:54:44.805Z,95.19
2019-01-23T20:57:11.183Z,95.10
2019-01-23T20:59:37.550Z,95.00
2019-01-23T21:02:03.916Z,94.84
2019-01-23T21:04:30.311Z,94.77
2019-01-23T21:06:56.691Z,94.76
2019-01-23T21:09:23.369Z,94.62
2019-01-23T21:11:49.730Z,94.63
2019-01-23T21:14:16.136Z,94.74
2019-01-23T21:16:42.514Z,94.78
2019-01-23T21:19:08.932Z,94.75
2019-01-23T21:21:35.266Z,94.78
2019-01-23T21:24:01.859Z,95.02
2019-01-23T21:26:28.216Z,94.98
2019-01-23T21:28:54.611Z,94.96
2019-01-23T21:31:20.931Z,94.94
2019-01-23T21:33:47.241Z,95.38
2019-01-23T21:36:14.735Z,95.37
2019-01-23T21:38:39.899Z,95.41
2019-01-23T21:41:06.166Z,95.38
2019-01-23T21:43:32.472Z,95.28
2019-01-23T21:45:58.790Z,95.41
2019-01-23T21:48:25.177Z,95.60
2019-01-23T21:50:51.487Z,95.75
2019-01-23T21:53:17.854Z,95.78
2019-01-23T21:55:44.218Z,95.70
2019-01-23T21:58:10.525Z,95.70
2019-01-23T22:00:36.831Z,95.71
2019-01-23T22:03:03.159Z,95.80
2019-01-23T22:05:29.469Z,95.85
2019-01-23T22:07:58.547Z,96.17
2019-01-23T22:10:24.862Z,96.15
2019-01-23T22:12:51.170Z,96.25
2019-01-23T22:15:17.481Z,96.47
2019-01-23T22:17:43.808Z,96.57
2019-01-23T22:20:10.120Z,96.42
2019-01-23T22:22:36.431Z,95.35
2019-01-23T22:25:02.773Z,94.83
2019-01-23T22:27:29.124Z,94.38
2019-01-23T22:29:55.458Z,94.18
2019-01-23T22:32:21.800Z,94.02
2019-01-23T22:34:48.177Z,93.69
2019-01-23T22:37:14.530Z,93.36
2019-01-23T22:39:40.841Z,93.19
2019-01-23T22:42:07.147Z,93.07
2019-01-23T22:44:33.541Z,93.01
2019-01-23T22:46:59.905Z,92.99
2019-01-23T22:49:26.289Z,93.02
2019-01-23T22:51:52.637Z,93.13
2019-01-23T22:54:19.011Z,93.25
2019-01-23T22:56:45.349Z,93.21
2019-01-23T22:59:11.712Z,93.17
2019-01-23T23:01:38.024Z,93.26
2019-01-23T23:04:04.424Z,93.05
2019-01-23T23:06:30.720Z,92.80
2019-01-23T23:08:57.065Z,92.90
2019-01-23T23:11:23.419Z,92.68
2019-01-23T23:13:49.822Z,91.27
2019-01-23T23:16:16.134Z,90.46
2019-01-23T23:18:42.521Z,90.69
2019-01-23T23:21:08.832Z,90.95
2019-01-23T23:23:35.136Z,91.34
2019-01-23T23:26:01.442Z,91.31
2019-01-23T23:28:27.749Z,91.69
2019-01-23T23:30:54.122Z,92.13
2019-01-23T23:33:20.402Z,92.32
2019-01-23T23:35:46.777Z,92.34
2019-01-23T23:38:13.080Z,92.53
2019-01-23T23:40:39.448Z,92.80
2019-01-23T23:43:05.832Z,93.08
2019-01-23T23:45:32.234Z,93.40
2019-01-23T23:47:58.588Z,93.45
2019-01-23T23:50:24.891Z,93.35
2019-01-23T23:52:51.199Z,93.19
2019-01-23T23:55:17.587Z,93.04
2019-01-23T23:57:43.961Z,92.89
